createdAt,value
2019-05-09T00:00:16.751Z,9.27
2019-05-09T00:01:16.803Z,9.24
2019-05-09T00:02:17.074Z,9.27
2019-05-09T00:03:16.343Z,9.22
2019-05-09T00:04:16.618Z,9.23
2019-05-09T00:05:16.897Z,9.22
2019-05-09T00:06:17.178Z,9.22
2019-05-09T00:07:16.442Z,9.22
2019-05-09T00:08:16.714Z,9.22
2019-05-09T00:09:16.977Z,9.20
2019-05-09T00:10:16.259Z,9.19
2019-05-09T00:11:16.304Z,9.17
2019-05-09T00:12:16.572Z,9.19
2019-05-09T00:13:16.841Z,9.16
2019-05-09T00:14:17.099Z,9.15
2019-05-09T00:15:16.372Z,9.13
2019-05-09T00:16:16.638Z,9.06
2019-05-09T00:17:16.913Z,9.09
2019-05-09T00:18:17.182Z,9.09
2019-05-09T00:19:16.452Z,9.09
2019-05-09T00:20:16.730Z,9.06
2019-05-09T00:21:16.786Z,9.05
2019-05-09T00:22:17.073Z,9.05
2019-05-09T00:23:16.331Z,9.00
2019-05-09T00:24:16.606Z,9.03
2019-05-09T00:25:16.865Z,9.02
2019-05-09T00:26:17.137Z,9.02
2019-05-09T00:27:16.402Z,8.99
2019-05-09T00:28:16.668Z,8.98
2019-05-09T00:29:16.973Z,9.02
2019-05-09T00:30:16.241Z,9.02
2019-05-09T00:31:16.291Z,8.98
2019-05-09T00:32:16.568Z,8.96
2019-05-09T00:33:16.835Z,8.98
2019-05-09T00:34:17.123Z,8.95
2019-05-09T00:35:16.395Z,8.96
2019-05-09T00:36:16.671Z,8.96
2019-05-09T00:37:16.929Z,8.96
2019-05-09T00:38:17.202Z,8.99
2019-05-09T00:39:16.468Z,8.99
2019-05-09T00:40:16.738Z,9.06
2019-05-09T00:41:16.795Z,9.00
2019-05-09T00:42:17.068Z,8.98
2019-05-09T00:43:16.331Z,9.02
2019-05-09T00:44:16.589Z,9.05
2019-05-09T00:45:16.859Z,9.02
2019-05-09T00:46:17.115Z,9.07
2019-05-09T00:47:16.377Z,9.10
2019-05-09T00:48:16.663Z,9.10
2019-05-09T00:49:16.930Z,9.17
2019-05-09T00:50:17.214Z,9.20
2019-05-09T00:51:16.260Z,9.16
2019-05-09T00:52:16.521Z,9.13
2019-05-09T00:53:16.771Z,9.09
2019-05-09T00:54:16.418Z,9.05
2019-05-09T00:55:16.688Z,9.05
2019-05-09T00:56:16.959Z,9.05
2019-05-09T00:57:16.226Z,8.95
2019-05-09T00:58:16.499Z,8.91
2019-05-09T00:59:16.765Z,8.89
2019-05-09T01:00:17.056Z,8.91
2019-05-09T01:01:17.112Z,8.88
2019-05-09T01:02:16.365Z,8.85
2019-05-09T01:03:16.631Z,8.80
2019-05-09T01:04:16.901Z,8.84
2019-05-09T01:05:17.187Z,8.82
2019-05-09T01:06:16.458Z,8.80
2019-05-09T01:07:16.727Z,8.79
2019-05-09T01:08:16.991Z,8.78
2019-05-09T01:09:16.262Z,8.82
2019-05-09T01:10:16.547Z,8.76
2019-05-09T01:11:16.598Z,8.74
2019-05-09T01:12:16.882Z,8.75
2019-05-09T01:13:17.160Z,8.75
2019-05-09T01:14:16.430Z,8.72
2019-05-09T01:15:16.688Z,8.75
2019-05-09T01:16:16.950Z,8.74
2019-05-09T01:17:16.213Z,8.76
2019-05-09T01:18:16.480Z,8.75
2019-05-09T01:19:16.746Z,8.72
2019-05-09T01:20:17.033Z,8.71
2019-05-09T01:21:17.060Z,8.74
2019-05-09T01:22:16.333Z,8.71
2019-05-09T01:23:16.600Z,8.67
2019-05-09T01:24:16.858Z,8.67
2019-05-09T01:25:17.145Z,8.64
2019-05-09T01:26:16.413Z,8.64
2019-05-09T01:27:16.675Z,8.58
2019-05-09T01:28:16.936Z,8.59
2019-05-09T01:29:16.205Z,8.59
2019-05-09T01:30:16.493Z,8.57
2019-05-09T01:31:16.531Z,8.52
2019-05-09T01:32:16.795Z,8.52
2019-05-09T01:33:17.070Z,8.55
2019-05-09T01:34:16.347Z,8.51
2019-05-09T01:35:16.616Z,8.48
2019-05-09T01:36:16.890Z,8.48
2019-05-09T01:37:17.171Z,8.43
2019-05-09T01:38:16.434Z,8.37
2019-05-09T01:39:16.698Z,8.40
2019-05-09T01:40:16.964Z,8.37
2019-05-09T01:41:27.717Z,8.36
2019-05-09T01:42:17.010Z,8.34
2019-05-09T01:43:16.278Z,8.33
2019-05-09T01:44:16.557Z,8.34
2019-05-09T01:45:16.830Z,8.30
2019-05-09T01:46:17.099Z,8.29
2019-05-09T01:47:16.370Z,8.26
2019-05-09T01:48:16.635Z,8.24
2019-05-09T01:49:16.914Z,8.26
2019-05-09T01:50:17.187Z,8.23
2019-05-09T01:51:16.255Z,8.23
2019-05-09T01:52:16.532Z,8.24
2019-05-09T01:53:16.796Z,8.24
2019-05-09T01:54:17.071Z,8.26
2019-05-09T01:55:16.330Z,8.21
2019-05-09T01:56:16.591Z,8.17
2019-05-09T01:57:16.873Z,8.19
2019-05-09T01:58:17.161Z,8.14
2019-05-09T01:59:16.436Z,8.14
2019-05-09T02:00:16.727Z,8.14
2019-05-09T02:01:16.756Z,8.13
2019-05-09T02:02:17.022Z,8.12
2019-05-09T02:03:16.294Z,8.10
2019-05-09T02:04:16.567Z,8.10
2019-05-09T02:05:16.831Z,8.12
2019-05-09T02:06:17.092Z,8.13
2019-05-09T02:07:16.361Z,8.13
2019-05-09T02:08:16.626Z,8.13
2019-05-09T02:09:16.914Z,8.16
2019-05-09T02:10:16.227Z,8.14
2019-05-09T02:11:16.268Z,8.14
2019-05-09T02:12:16.526Z,8.12
2019-05-09T02:13:16.796Z,8.08
2019-05-09T02:14:17.063Z,8.05
2019-05-09T02:15:16.329Z,8.05
2019-05-09T02:16:16.602Z,8.02
2019-05-09T02:17:16.860Z,7.99
2019-05-09T02:18:17.132Z,7.96
2019-05-09T02:19:16.396Z,7.98
2019-05-09T02:20:16.676Z,7.95
2019-05-09T02:21:16.723Z,7.92
2019-05-09T02:22:17.000Z,7.88
2019-05-09T02:23:16.269Z,7.88
2019-05-09T02:24:16.543Z,7.85
2019-05-09T02:25:16.836Z,7.86
2019-05-09T02:26:17.103Z,7.89
2019-05-09T02:27:16.373Z,7.86
2019-05-09T02:28:16.627Z,7.85
2019-05-09T02:29:16.902Z,7.82
2019-05-09T02:30:17.200Z,7.81
2019-05-09T02:31:16.607Z,7.80
2019-05-09T02:32:17.006Z,7.80
2019-05-09T02:33:16.271Z,7.72
2019-05-09T02:34:16.538Z,7.69
2019-05-09T02:35:16.829Z,7.68
2019-05-09T02:36:18.919Z,7.65
2019-05-09T02:37:18.665Z,7.65
2019-05-09T02:38:19.618Z,7.61
2019-05-09T02:39:18.822Z,7.62
2019-05-09T02:40:18.704Z,7.58
2019-05-09T02:41:19.198Z,7.59
2019-05-09T02:42:19.130Z,7.58
2019-05-09T02:43:18.616Z,7.57
2019-05-09T02:44:19.516Z,7.57
2019-05-09T02:45:19.096Z,7.57
2019-05-09T02:46:18.757Z,7.55
2019-05-09T02:47:17.976Z,7.54
2019-05-09T02:48:18.572Z,7.53
2019-05-09T02:49:19.044Z,7.51
2019-05-09T02:50:19.429Z,7.51
2019-05-09T02:51:18.449Z,7.51
2019-05-09T02:52:19.698Z,7.53
2019-05-09T02:53:18.869Z,7.50
2019-05-09T02:54:18.990Z,7.50
2019-05-09T02:55:18.366Z,7.55
2019-05-09T02:56:18.727Z,7.55
2019-05-09T02:57:18.409Z,7.54
2019-05-09T02:58:20.256Z,7.54
2019-05-09T02:59:18.893Z,7.59
2019-05-09T03:00:19.462Z,7.58
2019-05-09T03:01:18.880Z,7.59
2019-05-09T03:02:19.149Z,7.57
2019-05-09T03:03:19.766Z,7.58
2019-05-09T03:04:18.830Z,7.65
2019-05-09T03:05:19.407Z,7.66
2019-05-09T03:06:19.538Z,7.68
2019-05-09T03:07:18.850Z,7.68
2019-05-09T03:08:18.849Z,7.66
2019-05-09T03:09:18.954Z,7.68
2019-05-09T03:10:19.145Z,7.66
2019-05-09T03:11:18.673Z,7.69
2019-05-09T03:12:25.886Z,7.74
2019-05-09T03:13:18.985Z,7.74
2019-05-09T03:14:19.385Z,7.72
2019-05-09T03:15:18.546Z,7.74
2019-05-09T03:16:19.032Z,7.77
2019-05-09T03:17:18.526Z,7.75
2019-05-09T03:18:18.361Z,7.78
2019-05-09T03:19:19.354Z,7.80
2019-05-09T03:20:18.161Z,7.78
2019-05-09T03:21:19.051Z,7.80
2019-05-09T03:22:18.721Z,7.80
2019-05-09T03:23:18.780Z,7.80
2019-05-09T03:24:18.434Z,7.80
2019-05-09T03:25:19.059Z,7.82
2019-05-09T03:26:19.317Z,7.78
2019-05-09T03:27:18.688Z,7.80
2019-05-09T03:28:18.365Z,7.80
2019-05-09T03:29:18.980Z,7.82
2019-05-09T03:30:20.646Z,7.84
2019-05-09T03:31:19.627Z,7.86
2019-05-09T03:32:19.363Z,7.85
2019-05-09T03:33:20.050Z,7.86
2019-05-09T03:34:19.449Z,7.88
2019-05-09T03:35:17.227Z,7.88
2019-05-09T03:36:18.103Z,7.86
2019-05-09T03:37:17.609Z,7.88
2019-05-09T03:38:17.932Z,7.88
2019-05-09T03:39:18.246Z,7.88
2019-05-09T03:40:18.019Z,7.85
2019-05-09T03:41:17.684Z,7.86
2019-05-09T03:42:20.738Z,7.88
2019-05-09T03:43:18.316Z,7.86
2019-05-09T03:44:17.827Z,7.88
2019-05-09T03:45:18.184Z,7.88
2019-05-09T03:46:18.031Z,7.84
2019-05-09T03:47:17.306Z,7.84
2019-05-09T03:48:17.958Z,7.82
2019-05-09T03:49:17.941Z,7.82
2019-05-09T03:50:17.637Z,7.82
2019-05-09T03:51:18.328Z,7.82
2019-05-09T03:52:17.746Z,7.80
2019-05-09T03:53:18.406Z,7.82
2019-05-09T03:54:18.318Z,7.78
2019-05-09T03:55:17.856Z,7.78
2019-05-09T03:56:18.140Z,7.80
2019-05-09T03:57:17.958Z,7.80
2019-05-09T03:58:18.323Z,7.78
2019-05-09T03:59:17.567Z,7.78
2019-05-09T04:00:18.014Z,7.80
2019-05-09T04:01:17.560Z,7.78
2019-05-09T04:02:17.788Z,7.77
2019-05-09T04:03:18.262Z,7.74
2019-05-09T04:04:17.311Z,7.77
2019-05-09T04:05:18.070Z,7.71
2019-05-09T04:06:18.404Z,7.69
2019-05-09T04:07:18.632Z,7.69
2019-05-09T04:08:18.118Z,7.64
2019-05-09T04:09:17.917Z,7.61
2019-05-09T04:10:18.000Z,7.58
2019-05-09T04:11:18.411Z,7.55
2019-05-09T04:12:18.081Z,7.50
2019-05-09T04:13:17.960Z,7.50
2019-05-09T04:14:17.513Z,7.48
2019-05-09T04:15:18.940Z,7.51
2019-05-09T04:16:17.298Z,7.45
2019-05-09T04:17:18.075Z,7.44
2019-05-09T04:18:17.635Z,7.43
2019-05-09T04:19:17.539Z,7.44
2019-05-09T04:20:17.573Z,7.43
2019-05-09T04:21:17.538Z,7.43
2019-05-09T04:22:18.126Z,7.43
2019-05-09T04:23:18.588Z,7.34
2019-05-09T04:24:17.732Z,7.33
2019-05-09T04:25:18.056Z,7.33
2019-05-09T04:26:17.591Z,7.33
2019-05-09T04:27:17.771Z,7.33
2019-05-09T04:28:17.716Z,7.33
2019-05-09T04:29:18.329Z,7.33
2019-05-09T04:30:18.217Z,7.33
2019-05-09T04:31:17.754Z,7.37
2019-05-09T04:32:18.230Z,7.35
2019-05-09T04:33:17.691Z,7.40
2019-05-09T04:34:18.242Z,7.41
2019-05-09T04:35:17.489Z,7.44
2019-05-09T04:36:18.307Z,7.45
2019-05-09T04:37:17.992Z,7.44
2019-05-09T04:38:17.866Z,7.51
2019-05-09T04:39:21.587Z,7.54
2019-05-09T04:40:17.774Z,7.58
2019-05-09T04:41:23.573Z,7.65
2019-05-09T04:42:18.480Z,7.69
2019-05-09T04:43:22.861Z,7.69
2019-05-09T04:44:18.454Z,7.72
2019-05-09T04:45:17.653Z,7.69
2019-05-09T04:46:18.494Z,7.75
2019-05-09T04:47:17.347Z,7.72
2019-05-09T04:48:18.427Z,7.74
2019-05-09T04:49:18.471Z,7.74
2019-05-09T04:50:23.136Z,7.77
2019-05-09T04:51:17.983Z,7.78
2019-05-09T04:52:18.012Z,7.86
2019-05-09T04:53:18.263Z,7.85
2019-05-09T04:54:17.717Z,7.88
2019-05-09T04:55:18.183Z,7.91
2019-05-09T04:56:17.512Z,7.96
2019-05-09T04:57:17.817Z,7.95
2019-05-09T04:58:19.064Z,8.00
2019-05-09T04:59:17.852Z,7.99
2019-05-09T05:00:18.350Z,8.03
2019-05-09T05:01:19.363Z,8.03
2019-05-09T05:02:18.221Z,8.00
2019-05-09T05:03:18.284Z,8.03
2019-05-09T05:04:18.027Z,8.08
2019-05-09T05:05:18.040Z,8.10
2019-05-09T05:06:18.657Z,8.13
2019-05-09T05:07:18.022Z,8.13
2019-05-09T05:08:18.106Z,8.19
2019-05-09T05:09:20.290Z,8.21
2019-05-09T05:10:18.366Z,8.24
2019-05-09T05:11:17.801Z,8.24
2019-05-09T05:12:18.510Z,8.29
2019-05-09T05:13:25.858Z,8.34
2019-05-09T05:14:17.576Z,8.34
2019-05-09T05:15:17.887Z,8.37
2019-05-09T05:16:18.406Z,8.37
2019-05-09T05:17:17.922Z,8.41
2019-05-09T05:18:17.342Z,8.45
2019-05-09T05:19:17.642Z,8.45
2019-05-09T05:20:18.537Z,8.43
2019-05-09T05:21:19.792Z,8.45
2019-05-09T05:22:18.097Z,8.43
2019-05-09T05:23:18.231Z,8.44
2019-05-09T05:24:18.441Z,8.45
2019-05-09T05:25:17.826Z,8.55
2019-05-09T05:26:18.166Z,8.51
2019-05-09T05:27:18.791Z,8.52
2019-05-09T05:28:17.639Z,8.50
2019-05-09T05:29:17.688Z,8.48
2019-05-09T05:30:17.935Z,8.54
2019-05-09T05:31:18.018Z,8.57
2019-05-09T05:32:17.757Z,8.59
2019-05-09T05:33:18.284Z,8.59
2019-05-09T05:34:18.225Z,8.59
2019-05-09T05:35:17.844Z,8.57
2019-05-09T05:36:18.097Z,8.55
2019-05-09T05:37:17.624Z,8.55
2019-05-09T05:38:17.730Z,8.59
2019-05-09T05:39:17.814Z,8.65
2019-05-09T05:40:17.768Z,8.67
2019-05-09T05:41:18.256Z,8.65
2019-05-09T05:42:17.581Z,8.62
2019-05-09T05:43:17.446Z,8.65
2019-05-09T05:44:17.738Z,8.65
2019-05-09T05:45:18.086Z,8.62
2019-05-09T05:46:18.162Z,8.68
2019-05-09T05:47:17.998Z,8.68
2019-05-09T05:48:17.476Z,8.75
2019-05-09T05:49:18.595Z,8.78
2019-05-09T05:50:17.614Z,8.76
2019-05-09T05:51:18.405Z,8.76
2019-05-09T05:52:18.461Z,8.76
2019-05-09T05:53:18.254Z,8.79
2019-05-09T05:54:18.123Z,8.85
2019-05-09T05:55:18.173Z,8.80
2019-05-09T05:56:17.555Z,8.82
2019-05-09T05:57:17.741Z,8.86
2019-05-09T05:58:17.956Z,8.86
2019-05-09T05:59:17.800Z,8.92
2019-05-09T06:00:18.026Z,8.98
2019-05-09T06:01:18.412Z,8.99
2019-05-09T06:02:17.716Z,8.89
2019-05-09T06:03:17.747Z,8.99
2019-05-09T06:04:18.514Z,9.05
2019-05-09T06:05:18.624Z,9.09
2019-05-09T06:06:17.551Z,9.19
2019-05-09T06:07:18.403Z,9.13
2019-05-09T06:08:17.448Z,9.26
2019-05-09T06:09:18.860Z,9.30
2019-05-09T06:10:18.586Z,9.36
2019-05-09T06:11:17.667Z,9.37
2019-05-09T06:12:18.476Z,9.40
2019-05-09T06:13:18.301Z,9.31
2019-05-09T06:14:18.377Z,9.34
2019-05-09T06:15:18.173Z,9.43
2019-05-09T06:16:17.823Z,9.33
2019-05-09T06:17:18.047Z,9.47
2019-05-09T06:18:18.334Z,9.47
2019-05-09T06:19:17.769Z,9.58
2019-05-09T06:20:17.691Z,9.64
2019-05-09T06:21:17.691Z,9.61
2019-05-09T06:22:18.260Z,9.71
2019-05-09T06:23:17.570Z,9.85
2019-05-09T06:24:17.776Z,10.01
2019-05-09T06:25:19.951Z,10.23
2019-05-09T06:26:18.497Z,10.16
2019-05-09T06:27:18.214Z,10.30
2019-05-09T06:28:18.167Z,10.39
2019-05-09T06:29:17.721Z,10.40
2019-05-09T06:30:17.530Z,10.40
2019-05-09T06:31:17.847Z,10.65
2019-05-09T06:32:18.552Z,10.60
2019-05-09T06:33:18.003Z,10.51
2019-05-09T06:34:18.666Z,10.64
2019-05-09T06:35:17.533Z,10.78
2019-05-09T06:36:18.798Z,10.87
2019-05-09T06:37:18.309Z,10.78
2019-05-09T06:38:18.670Z,10.54
2019-05-09T06:39:17.825Z,10.65
2019-05-09T06:40:17.389Z,10.44
2019-05-09T06:41:17.617Z,10.40
2019-05-09T06:42:18.054Z,10.47
2019-05-09T06:43:18.271Z,10.56
2019-05-09T06:44:19.842Z,10.70
2019-05-09T06:45:17.939Z,10.88
2019-05-09T06:46:18.217Z,10.96
2019-05-09T06:47:18.489Z,10.96
2019-05-09T06:48:18.056Z,10.87
2019-05-09T06:49:27.060Z,10.68
2019-05-09T06:50:18.433Z,10.51
2019-05-09T06:51:20.511Z,10.41
2019-05-09T06:52:17.436Z,10.40
2019-05-09T06:53:18.105Z,10.50
2019-05-09T06:54:17.423Z,10.65
2019-05-09T06:55:17.376Z,10.71
2019-05-09T06:56:17.790Z,10.84
2019-05-09T06:57:18.635Z,10.84
2019-05-09T06:58:18.358Z,11.05
2019-05-09T06:59:18.554Z,11.16
2019-05-09T07:00:17.779Z,11.07
2019-05-09T07:01:18.206Z,11.25
2019-05-09T07:02:17.623Z,11.37
2019-05-09T07:03:18.446Z,11.40
2019-05-09T07:04:18.319Z,11.46
2019-05-09T07:05:17.920Z,11.55
2019-05-09T07:06:17.752Z,11.37
2019-05-09T07:07:17.706Z,11.46
2019-05-09T07:08:18.316Z,11.51
2019-05-09T07:09:17.439Z,11.42
2019-05-09T07:10:17.772Z,11.06
2019-05-09T07:11:19.155Z,11.16
2019-05-09T07:12:18.055Z,11.22
2019-05-09T07:13:18.221Z,11.34
2019-05-09T07:14:26.506Z,11.17
2019-05-09T07:15:17.716Z,11.13
2019-05-09T07:16:18.643Z,11.17
2019-05-09T07:17:18.285Z,11.22
2019-05-09T07:18:18.376Z,11.33
2019-05-09T07:19:17.445Z,11.50
2019-05-09T07:20:18.231Z,11.29
2019-05-09T07:21:18.909Z,11.55
2019-05-09T07:22:18.370Z,11.86
2019-05-09T07:23:17.715Z,11.64
2019-05-09T07:24:18.451Z,11.71
2019-05-09T07:25:18.559Z,11.71
2019-05-09T07:26:17.633Z,11.67
2019-05-09T07:27:17.917Z,11.78
2019-05-09T07:28:17.954Z,11.61
2019-05-09T07:29:17.828Z,11.82
2019-05-09T07:30:17.943Z,11.82
2019-05-09T07:31:17.703Z,12.32
2019-05-09T07:32:18.151Z,12.36
2019-05-09T07:33:18.779Z,12.26
2019-05-09T07:34:18.418Z,12.13
2019-05-09T07:35:18.545Z,11.85
2019-05-09T07:36:18.849Z,12.02
2019-05-09T07:37:18.396Z,12.02
2019-05-09T07:38:17.756Z,11.99
2019-05-09T07:39:17.628Z,12.09
2019-05-09T07:40:18.003Z,12.09
2019-05-09T07:41:17.749Z,11.85
2019-05-09T07:42:17.991Z,12.03
2019-05-09T07:43:17.969Z,11.95
2019-05-09T07:44:18.185Z,11.78
2019-05-09T07:45:17.789Z,11.78
2019-05-09T07:46:17.697Z,11.84
2019-05-09T07:47:17.734Z,11.92
2019-05-09T07:48:18.087Z,11.96
2019-05-09T07:49:17.538Z,12.03
2019-05-09T07:50:18.871Z,12.18
2019-05-09T07:51:18.051Z,12.41
2019-05-09T07:52:18.539Z,12.54
2019-05-09T07:53:17.659Z,12.51
2019-05-09T07:54:21.826Z,12.88
2019-05-09T07:55:17.980Z,13.12
2019-05-09T07:56:18.614Z,13.09
2019-05-09T07:57:18.098Z,12.54
2019-05-09T07:58:18.635Z,12.81
2019-05-09T07:59:18.062Z,13.08
2019-05-09T08:00:18.353Z,12.78
2019-05-09T08:01:18.674Z,12.47
2019-05-09T08:02:17.623Z,12.46
2019-05-09T08:03:18.079Z,12.32
2019-05-09T08:04:18.214Z,12.37
2019-05-09T08:05:17.383Z,12.46
2019-05-09T08:06:18.293Z,12.29
2019-05-09T08:07:17.545Z,12.18
2019-05-09T08:08:18.508Z,12.25
2019-05-09T08:09:18.622Z,12.30
2019-05-09T08:10:17.611Z,12.40
2019-05-09T08:11:17.957Z,12.51
2019-05-09T08:12:17.904Z,12.58
2019-05-09T08:13:18.163Z,12.64
2019-05-09T08:14:17.560Z,12.77
2019-05-09T08:15:19.954Z,12.98
2019-05-09T08:16:18.570Z,13.06
2019-05-09T08:17:18.076Z,12.78
2019-05-09T08:18:17.424Z,12.70
2019-05-09T08:19:18.053Z,12.79
2019-05-09T08:20:17.499Z,12.81
2019-05-09T08:21:18.026Z,12.99
2019-05-09T08:22:21.141Z,12.92
2019-05-09T08:23:18.029Z,12.72
2019-05-09T08:24:18.271Z,12.66
2019-05-09T08:25:18.297Z,12.81
2019-05-09T08:26:18.767Z,12.82
2019-05-09T08:27:17.456Z,12.84
2019-05-09T08:28:17.657Z,13.01
2019-05-09T08:29:17.745Z,13.21
2019-05-09T08:30:17.935Z,13.34
2019-05-09T08:31:17.795Z,13.40
2019-05-09T08:32:18.059Z,13.53
2019-05-09T08:33:18.367Z,13.33
2019-05-09T08:34:18.645Z,13.44
2019-05-09T08:35:18.261Z,13.36
2019-05-09T08:36:17.979Z,13.42
2019-05-09T08:37:17.540Z,13.43
2019-05-09T08:38:17.817Z,13.25
2019-05-09T08:39:18.347Z,13.16
2019-05-09T08:40:18.317Z,13.01
2019-05-09T08:41:18.578Z,12.92
2019-05-09T08:42:17.950Z,12.98
2019-05-09T08:43:17.868Z,13.11
2019-05-09T08:44:18.590Z,13.04
2019-05-09T08:45:25.182Z,13.05
2019-05-09T08:46:18.092Z,12.99
2019-05-09T08:47:18.435Z,12.95
2019-05-09T08:48:18.374Z,12.95
2019-05-09T08:49:18.228Z,12.91
2019-05-09T08:50:17.573Z,13.01
2019-05-09T08:51:17.975Z,13.01
2019-05-09T08:52:19.492Z,13.19
2019-05-09T08:53:18.545Z,13.15
2019-05-09T08:54:17.891Z,13.19
2019-05-09T08:55:17.435Z,13.36
2019-05-09T08:56:17.756Z,13.51
2019-05-09T08:57:18.182Z,13.54
2019-05-09T08:58:19.532Z,13.58
2019-05-09T08:59:18.295Z,13.58
2019-05-09T09:00:18.850Z,13.55
2019-05-09T09:01:26.665Z,13.55
2019-05-09T09:02:21.725Z,13.46
2019-05-09T09:03:18.459Z,13.49
2019-05-09T09:04:18.914Z,13.49
2019-05-09T09:05:18.563Z,13.55
2019-05-09T09:06:18.328Z,13.67
2019-05-09T09:07:18.903Z,13.68
2019-05-09T09:08:18.292Z,13.87
2019-05-09T09:09:17.962Z,13.81
2019-05-09T09:10:18.585Z,13.67
2019-05-09T09:11:18.467Z,13.81
2019-05-09T09:12:26.655Z,14.00
2019-05-09T09:13:17.453Z,13.94
2019-05-09T09:14:18.461Z,13.78
2019-05-09T09:15:17.963Z,14.18
2019-05-09T09:16:21.524Z,14.33
2019-05-09T09:17:18.673Z,13.91
2019-05-09T09:18:17.897Z,13.87
2019-05-09T09:19:17.884Z,14.11
2019-05-09T09:20:18.132Z,14.40
2019-05-09T09:21:18.274Z,14.52
2019-05-09T09:22:17.955Z,14.56
2019-05-09T09:23:18.006Z,14.13
2019-05-09T09:24:17.675Z,14.09
2019-05-09T09:25:18.323Z,14.16
2019-05-09T09:26:18.324Z,14.01
2019-05-09T09:27:18.167Z,14.07
2019-05-09T09:28:18.237Z,13.81
2019-05-09T09:29:17.808Z,13.71
2019-05-09T09:30:24.052Z,13.77
2019-05-09T09:31:17.962Z,13.87
2019-05-09T09:32:18.848Z,14.05
2019-05-09T09:33:17.583Z,14.23
2019-05-09T09:34:18.118Z,14.12
2019-05-09T09:35:18.628Z,14.18
2019-05-09T09:36:17.812Z,14.05
2019-05-09T09:37:18.442Z,14.08
2019-05-09T09:38:17.663Z,14.11
2019-05-09T09:39:18.443Z,14.26
2019-05-09T09:40:17.656Z,13.90
2019-05-09T09:41:18.121Z,13.90
2019-05-09T09:42:19.782Z,14.23
2019-05-09T09:43:17.590Z,14.37
2019-05-09T09:44:17.903Z,14.41
2019-05-09T09:45:18.306Z,14.57
2019-05-09T09:46:18.133Z,14.46
2019-05-09T09:47:22.283Z,14.50
2019-05-09T09:48:18.010Z,14.57
2019-05-09T09:49:18.051Z,14.40
2019-05-09T09:50:17.680Z,14.30
2019-05-09T09:51:18.540Z,14.47
2019-05-09T09:52:18.703Z,14.40
2019-05-09T09:53:18.383Z,14.09
2019-05-09T09:54:18.747Z,14.04
2019-05-09T09:55:18.421Z,13.98
2019-05-09T09:56:17.785Z,14.01
2019-05-09T09:57:18.971Z,14.36
2019-05-09T09:58:18.913Z,14.05
2019-05-09T09:59:18.753Z,14.19
2019-05-09T10:00:18.047Z,14.29
2019-05-09T10:01:18.048Z,14.28
2019-05-09T10:02:16.483Z,14.35
2019-05-09T10:03:18.573Z,14.08
2019-05-09T10:04:23.675Z,14.19
2019-05-09T10:05:18.305Z,14.32
2019-05-09T10:06:16.874Z,14.29
2019-05-09T10:07:18.945Z,14.74
2019-05-09T10:08:18.084Z,14.59
2019-05-09T10:09:17.448Z,14.67
2019-05-09T10:10:18.416Z,14.52
2019-05-09T10:11:17.917Z,14.64
2019-05-09T10:12:18.161Z,14.41
2019-05-09T10:13:18.472Z,14.44
2019-05-09T10:14:18.561Z,14.43
2019-05-09T10:15:18.855Z,14.33
2019-05-09T10:16:26.380Z,14.33
2019-05-09T10:17:17.611Z,14.43
2019-05-09T10:18:18.240Z,14.36
2019-05-09T10:19:18.509Z,14.08
2019-05-09T10:20:18.121Z,14.01
2019-05-09T10:21:16.988Z,14.33
2019-05-09T10:22:23.249Z,14.68
2019-05-09T10:23:18.716Z,14.49
2019-05-09T10:24:17.456Z,14.46
2019-05-09T10:25:18.244Z,14.28
2019-05-09T10:26:17.755Z,14.43
2019-05-09T10:27:18.452Z,14.41
2019-05-09T10:28:21.306Z,14.32
2019-05-09T10:29:17.693Z,14.57
2019-05-09T10:30:18.006Z,14.78
2019-05-09T10:31:17.120Z,14.99
2019-05-09T10:32:18.134Z,15.05
2019-05-09T10:33:17.502Z,14.97
2019-05-09T10:34:17.709Z,15.14
2019-05-09T10:35:17.681Z,15.36
2019-05-09T10:36:17.036Z,15.38
2019-05-09T10:37:18.485Z,15.26
2019-05-09T10:38:18.337Z,15.38
2019-05-09T10:39:18.684Z,15.15
2019-05-09T10:40:17.090Z,15.18
2019-05-09T10:41:17.141Z,14.87
2019-05-09T10:42:18.509Z,14.94
2019-05-09T10:43:33.353Z,14.85
2019-05-09T10:44:17.980Z,14.67
2019-05-09T10:45:18.001Z,14.74
2019-05-09T10:46:18.995Z,14.57
2019-05-09T10:47:16.918Z,14.68
2019-05-09T10:48:23.205Z,14.73
2019-05-09T10:49:16.404Z,14.50
2019-05-09T10:50:18.332Z,14.39
2019-05-09T10:51:18.531Z,14.29
2019-05-09T10:52:18.165Z,14.22
2019-05-09T10:53:17.940Z,14.16
2019-05-09T10:54:18.507Z,14.01
2019-05-09T10:55:17.859Z,13.70
2019-05-09T10:56:18.644Z,13.43
2019-05-09T10:57:16.415Z,13.29
2019-05-09T10:58:19.503Z,13.23
2019-05-09T10:59:18.240Z,13.15
2019-05-09T11:00:18.395Z,13.34
2019-05-09T11:01:18.425Z,13.36
2019-05-09T11:02:17.567Z,13.42
2019-05-09T11:03:18.008Z,13.49
2019-05-09T11:04:17.973Z,13.95
2019-05-09T11:05:18.393Z,13.84
2019-05-09T11:06:18.287Z,13.91
2019-05-09T11:07:18.164Z,13.97
2019-05-09T11:08:18.430Z,14.01
2019-05-09T11:09:18.176Z,13.94
2019-05-09T11:10:25.361Z,14.15
2019-05-09T11:11:18.133Z,14.36
2019-05-09T11:12:18.010Z,14.23
2019-05-09T11:13:18.121Z,14.30
2019-05-09T11:14:31.889Z,14.67
2019-05-09T11:15:17.731Z,14.66
2019-05-09T11:16:18.255Z,14.66
2019-05-09T11:17:20.932Z,14.47
2019-05-09T11:18:18.284Z,14.16
2019-05-09T11:19:18.293Z,14.13
2019-05-09T11:20:19.324Z,14.13
2019-05-09T11:21:19.121Z,14.23
2019-05-09T11:22:18.263Z,14.53
2019-05-09T11:23:19.135Z,14.35
2019-05-09T11:24:18.711Z,14.22
2019-05-09T11:25:16.398Z,14.46
2019-05-09T11:26:17.854Z,14.52
2019-05-09T11:27:18.561Z,14.56
2019-05-09T11:28:17.891Z,14.13
2019-05-09T11:29:18.492Z,14.22
2019-05-09T11:30:17.675Z,14.33
2019-05-09T11:31:18.330Z,14.05
2019-05-09T11:32:17.863Z,13.94
2019-05-09T11:33:18.271Z,14.05
2019-05-09T11:34:18.790Z,14.04
2019-05-09T11:35:17.629Z,14.46
2019-05-09T11:36:20.576Z,14.64
2019-05-09T11:37:17.073Z,14.55
2019-05-09T11:38:29.114Z,15.22
2019-05-09T11:39:34.105Z,15.49
2019-05-09T11:40:16.244Z,15.31
2019-05-09T11:41:18.852Z,15.02
2019-05-09T11:42:17.787Z,14.55
2019-05-09T11:43:18.095Z,14.98
2019-05-09T11:44:18.384Z,14.98
2019-05-09T11:45:17.893Z,15.18
2019-05-09T11:46:17.945Z,15.31
2019-05-09T11:47:31.673Z,15.26
2019-05-09T11:48:18.435Z,15.12
2019-05-09T11:49:17.909Z,15.15
2019-05-09T11:50:22.013Z,14.99
2019-05-09T11:51:19.157Z,15.25
2019-05-09T11:52:18.293Z,15.18
2019-05-09T11:53:17.629Z,14.91
2019-05-09T11:54:19.339Z,14.80
2019-05-09T11:55:29.518Z,15.12
2019-05-09T11:56:17.884Z,15.05
2019-05-09T11:57:18.909Z,14.78
2019-05-09T11:58:18.070Z,14.94
2019-05-09T11:59:18.190Z,14.47
2019-05-09T12:00:17.918Z,14.83
2019-05-09T12:01:18.836Z,14.62
2019-05-09T12:02:18.014Z,14.67
2019-05-09T12:03:18.726Z,14.94
2019-05-09T12:04:18.404Z,14.80
2019-05-09T12:05:19.152Z,14.67
2019-05-09T12:06:19.576Z,14.92
2019-05-09T12:07:17.807Z,14.95
2019-05-09T12:08:17.686Z,14.97
2019-05-09T12:09:17.099Z,14.57
2019-05-09T12:10:18.542Z,14.63
2019-05-09T12:11:18.130Z,14.71
2019-05-09T12:12:19.311Z,14.76
2019-05-09T12:13:18.564Z,14.92
2019-05-09T12:14:17.000Z,14.99
2019-05-09T12:15:16.271Z,14.64
2019-05-09T12:16:18.352Z,14.23
2019-05-09T12:17:19.239Z,14.98
2019-05-09T12:18:16.262Z,15.02
2019-05-09T12:19:17.916Z,15.07
2019-05-09T12:20:18.028Z,14.39
2019-05-09T12:21:18.982Z,14.46
2019-05-09T12:22:19.029Z,14.32
2019-05-09T12:23:19.839Z,14.12
2019-05-09T12:24:18.332Z,14.40
2019-05-09T12:25:18.298Z,14.47
2019-05-09T12:26:17.932Z,13.97
2019-05-09T12:27:18.727Z,13.97
2019-05-09T12:28:18.668Z,14.25
2019-05-09T12:29:16.318Z,14.20
2019-05-09T12:30:18.836Z,13.82
2019-05-09T12:31:18.031Z,13.77
2019-05-09T12:32:18.599Z,13.80
2019-05-09T12:33:18.753Z,13.78
2019-05-09T12:34:19.226Z,13.55
2019-05-09T12:35:19.026Z,13.53
2019-05-09T12:36:18.981Z,13.39
2019-05-09T12:37:18.212Z,13.37
2019-05-09T12:38:18.025Z,12.94
2019-05-09T12:39:18.724Z,12.81
2019-05-09T12:40:19.760Z,12.82
2019-05-09T12:41:18.644Z,12.82
2019-05-09T12:42:18.443Z,12.98
2019-05-09T12:43:18.298Z,12.96
2019-05-09T12:44:18.191Z,13.12
2019-05-09T12:45:17.971Z,13.22
2019-05-09T12:46:16.436Z,13.16
2019-05-09T12:47:18.923Z,13.11
2019-05-09T12:48:19.201Z,12.70
2019-05-09T12:49:18.888Z,12.74
2019-05-09T12:50:18.670Z,12.63
2019-05-09T12:51:18.357Z,12.50
2019-05-09T12:52:18.526Z,12.64
2019-05-09T12:53:18.880Z,12.74
2019-05-09T12:54:18.737Z,12.89
2019-05-09T12:55:17.837Z,13.04
2019-05-09T12:56:18.359Z,12.94
2019-05-09T12:57:19.114Z,12.89
2019-05-09T12:58:17.753Z,12.87
2019-05-09T12:59:18.677Z,12.95
2019-05-09T13:00:18.439Z,13.09
2019-05-09T13:01:18.687Z,12.96
2019-05-09T13:02:17.735Z,12.92
2019-05-09T13:03:17.830Z,12.95
2019-05-09T13:04:17.184Z,12.95
2019-05-09T13:05:18.069Z,13.08